Time;durP1;ratioP1;P1;durP2;ratioP2;P2;SDS_P1;SDS_P2;PMS_P1;PMS_P2;Temp;Humidity;BMP_temperature;BMP_pressure;BME280_temperature;BME280_humidity;BME280_pressure;Samples;Min_cycle;Max_cycle;Signal;HPM_P1;HPM_P2
2021/07/12 00:02:11;;;;;;;10.68;9.58;;;;;;;24.50;57.99;99446.67;1761544;80;21590;-42
2021/07/12 00:04:38;;;;;;;10.53;9.25;;;;;;;24.46;58.62;99449.58;1748077;80;21113;-42
2021/07/12 00:07:06;;;;;;;9.70;8.30;;;;;;;24.45;59.12;99441.70;1702774;84;20918;-42
2021/07/12 00:09:34;;;;;;;10.70;8.73;;;;;;;24.45;59.66;99439.70;1746368;80;20973;-42
2021/07/12 00:12:01;;;;;;;10.40;8.83;;;;;;;24.45;60.02;99445.25;1758208;80;20980;-42
2021/07/12 00:14:28;;;;;;;10.18;9.08;;;;;;;24.45;60.38;99443.09;1740238;80;21088;-42
2021/07/12 00:16:55;;;;;;;12.40;9.38;;;;;;;24.43;60.80;99443.56;1692919;84;21144;-42
2021/07/12 00:19:22;;;;;;;11.43;9.75;;;;;;;24.45;61.17;99445.25;1743931;80;20986;-42
2021/07/12 00:21:50;;;;;;;11.10;9.33;;;;;;;24.44;61.61;99440.95;1738637;80;21051;-42
2021/07/12 00:24:19;;;;;;;11.20;9.30;;;;;;;24.47;61.51;99444.81;1751956;80;21017;-42
2021/07/12 00:26:47;;;;;;;11.40;10.08;;;;;;;24.48;59.56;99447.14;1743361;81;21045;-42
2021/07/12 00:29:15;;;;;;;14.25;10.25;;;;;;;24.50;58.12;99444.67;1731745;80;21725;-42
2021/07/12 00:31:43;;;;;;;13.58;10.25;;;;;;;24.47;57.68;99445.59;1737470;80;21010;-42
2021/07/12 00:34:09;;;;;;;14.55;10.45;;;;;;;24.46;57.78;99441.27;1731306;80;20973;-42
2021/07/12 00:36:39;;;;;;;12.73;10.18;;;;;;;24.45;57.95;99459.11;1755177;80;21593;-42
2021/07/12 00:39:07;;;;;;;14.65;10.88;;;;;;;24.45;57.69;99448.02;1737524;80;21020;-42
2021/07/12 00:41:36;;;;;;;13.80;10.35;;;;;;;24.43;57.76;99449.72;1762553;80;21535;-42
2021/07/12 00:44:05;;;;;;;13.20;10.45;;;;;;;24.40;57.75;99445.83;1756253;80;20961;-42
2021/07/12 00:46:33;;;;;;;12.90;8.78;;;;;;;24.37;58.14;99446.74;1743200;82;20934;-42
2021/07/12 00:49:00;;;;;;;12.20;9.63;;;;;;;24.35;58.69;99454.72;1744834;80;21013;-42
2021/07/12 00:51:27;;;;;;;11.50;9.30;;;;;;;24.28;59.28;99441.14;1743066;80;21037;-42
2021/07/12 00:53:54;;;;;;;11.25;9.38;;;;;;;24.23;58.68;99440.33;1751980;80;21106;-42
2021/07/12 00:56:22;;;;;;;11.88;9.03;;;;;;;24.18;58.47;99437.52;1730724;80;21104;-42
2021/07/12 00:58:49;;;;;;;11.55;8.95;;;;;;;24.14;58.21;99434.69;1679784;83;21057;-42
2021/07/12 01:01:18;;;;;;;11.15;9.23;;;;;;;24.12;58.46;99438.50;1746507;80;21499;-42
2021/07/12 01:03:48;;;;;;;10.43;9.35;;;;;;;24.10;58.91;99436.81;1706597;83;20983;-42
2021/07/12 01:06:14;;;;;;;12.60;9.10;;;;;;;24.05;59.34;99435.39;1748173;80;21089;-42
2021/07/12 01:08:44;;;;;;;14.63;9.38;;;;;;;23.97;59.89;99436.06;1754820;80;20938;-42
2021/07/12 01:11:37;;;;;;;12.75;9.33;;;;;;;23.91;60.03;99427.58;1767483;81;21041;-42
2021/07/12 01:14:28;;;;;;;12.53;8.78;;;;;;;23.91;60.34;99426.80;1740713;80;21124;-42
2021/07/12 01:17:14;;;;;;;11.78;9.10;;;;;;;23.93;60.77;99434.03;1720959;82;21472;-42
2021/07/12 01:20:36;;;;;;;11.18;8.43;;;;;;;23.92;60.90;99431.87;1756608;80;21132;-42
2021/07/12 01:23:49;;;;;;;10.68;9.33;;;;;;;23.86;60.78;99428.14;1753940;80;21539;-42
2021/07/12 01:26:43;;;;;;;12.25;10.10;;;;;;;23.73;59.36;99432.31;1760343;80;20946;-42
2021/07/12 01:29:48;;;;;;;12.88;10.05;;;;;;;23.64;58.67;99435.59;1729741;80;21089;-42
2021/07/12 01:32:38;;;;;;;11.12;9.93;;;;;;;23.56;59.10;99440.61;1739291;80;21064;-42
2021/07/12 01:35:20;;;;;;;11.90;9.83;;;;;;;23.50;59.01;99435.45;1702700;84;21117;-42
2021/07/12 01:39:10;;;;;;;10.85;9.75;;;;;;;23.50;59.63;99432.69;1815541;78;22328;-42
2021/07/12 01:42:06;;;;;;;11.00;9.80;;;;;;;23.42;59.94;99431.95;1777902;80;21027;-42
2021/07/12 01:45:05;;;;;;;12.60;10.13;;;;;;;23.37;60.68;99436.06;1735142;80;21127;-42
2021/07/12 01:47:56;;;;;;;13.83;10.80;;;;;;;23.37;59.98;99437.44;1730658;80;20988;-42
2021/07/12 01:50:49;;;;;;;12.60;10.18;;;;;;;23.42;59.35;99436.89;1747436;80;21019;-42
2021/07/12 01:53:56;;;;;;;13.50;11.12;;;;;;;23.44;59.26;99436.42;1773014;80;20973;-42
2021/07/12 01:56:36;;;;;;;13.48;11.35;;;;;;;23.44;59.11;99431.66;1759549;80;21063;-42
2021/07/12 01:59:20;;;;;;;15.98;11.68;;;;;;;23.40;59.03;99431.78;1769430;80;21128;-42
2021/07/12 02:01:47;;;;;;;13.32;11.30;;;;;;;23.42;59.12;99434.12;1765135;80;21040;-42
2021/07/12 02:04:16;;;;;;;17.57;11.95;;;;;;;23.41;59.16;99433.95;1771167;80;20988;-42
2021/07/12 02:06:43;;;;;;;17.17;13.30;;;;;;;23.42;59.13;99434.12;1731339;82;21020;-42
2021/07/12 02:09:13;;;;;;;16.32;12.70;;;;;;;23.43;59.24;99438.41;1715850;83;21051;-42
2021/07/12 02:11:41;;;;;;;17.17;13.10;;;;;;;23.40;59.29;99444.23;1730248;83;21589;-42
2021/07/12 02:14:08;;;;;;;16.00;14.05;;;;;;;23.36;59.44;99439.43;1704336;82;20991;-42
2021/07/12 02:16:36;;;;;;;18.57;13.32;;;;;;;23.34;59.60;99439.09;1712718;82;20988;-42
2021/07/12 02:19:04;;;;;;;16.75;14.63;;;;;;;23.32;59.78;99437.39;1693107;82;21020;-42
2021/07/12 02:21:34;;;;;;;16.97;12.85;;;;;;;23.29;59.78;99440.25;1730198;82;21538;-42
2021/07/12 02:24:06;;;;;;;16.35;12.25;;;;;;;23.28;59.77;99438.72;1734195;82;21576;-42
2021/07/12 02:26:34;;;;;;;18.05;12.78;;;;;;;23.29;59.78;99439.64;1723517;82;21021;-42
2021/07/12 02:29:04;;;;;;;16.25;12.95;;;;;;;23.32;59.70;99438.00;1733701;82;20995;-42
2021/07/12 02:31:33;;;;;;;19.07;13.08;;;;;;;23.32;59.57;99438.00;1721164;82;21688;-42
2021/07/12 02:34:00;;;;;;;15.72;13.00;;;;;;;23.29;59.66;99438.87;1703750;82;21044;-42
2021/07/12 02:36:28;;;;;;;15.65;12.90;;;;;;;23.28;59.80;99442.88;1708724;82;21150;-42
2021/07/12 02:38:55;;;;;;;14.60;12.23;;;;;;;23.27;59.82;99446.24;1702090;82;21069;-42
2021/07/12 02:41:23;;;;;;;15.53;12.70;;;;;;;23.28;59.91;99445.64;1700060;82;20938;-42
2021/07/12 02:43:51;;;;;;;16.93;13.25;;;;;;;23.27;60.07;99447.63;1675717;84;21539;-42
2021/07/12 02:46:20;;;;;;;14.85;12.70;;;;;;;23.26;60.10;99437.00;1710457;83;21506;-42
2021/07/12 02:48:47;;;;;;;24.57;14.00;;;;;;;23.22;59.95;99441.27;1700415;82;21140;-42
2021/07/12 02:51:16;;;;;;;16.55;12.63;;;;;;;23.18;60.03;99441.99;1704006;82;21028;-42
2021/07/12 02:53:49;;;;;;;25.55;14.03;;;;;;;23.16;60.15;99444.41;1686966;82;21005;-42
2021/07/12 02:56:16;;;;;;;32.50;13.95;;;;;;;23.18;60.37;99442.59;1695112;82;21543;-42
2021/07/12 02:58:43;;;;;;;18.82;12.20;;;;;;;23.22;60.66;99440.48;1708573;82;21105;-42
2021/07/12 03:01:11;;;;;;;20.35;13.00;;;;;;;23.24;60.79;99434.66;1694964;83;21303;-42
2021/07/12 03:03:38;;;;;;;18.82;11.57;;;;;;;23.26;60.85;99432.84;1694607;82;20970;-42
2021/07/12 03:06:11;;;;;;;17.45;12.75;;;;;;;23.31;60.79;99436.44;1702580;82;21009;-42
2021/07/12 03:09:04;;;;;;;16.67;11.73;;;;;;;23.37;60.67;99438.83;1707061;82;21515;-42
2021/07/12 03:11:39;;;;;;;18.02;11.75;;;;;;;23.39;60.82;99427.47;1701529;82;21041;-42
2021/07/12 03:14:17;;;;;;;15.00;10.95;;;;;;;23.43;60.85;99423.19;1701648;82;21130;-42
2021/07/12 03:16:44;;;;;;;17.48;11.48;;;;;;;23.48;60.99;99421.28;1713082;82;20945;-42
2021/07/12 03:19:28;;;;;;;18.20;11.43;;;;;;;23.55;60.95;99423.05;1711833;82;21067;-42
2021/07/12 03:21:56;;;;;;;14.03;11.50;;;;;;;23.65;60.93;99423.31;1702762;82;21048;-42
2021/07/12 03:24:22;;;;;;;17.12;12.03;;;;;;;23.71;60.75;99422.31;1688961;84;21124;-42
2021/07/12 03:26:52;;;;;;;12.98;10.93;;;;;;;23.78;60.81;99420.67;1696123;82;21666;-42
2021/07/12 03:29:19;;;;;;;15.85;11.33;;;;;;;23.83;60.67;99422.88;1708781;82;28745;-42
2021/07/12 03:31:46;;;;;;;15.13;11.75;;;;;;;23.89;60.65;99419.53;1661433;84;21080;-42
2021/07/12 03:34:14;;;;;;;16.75;11.38;;;;;;;23.95;60.50;99421.91;1704675;82;21559;-43
2021/07/12 03:36:42;;;;;;;14.63;11.18;;;;;;;23.99;60.50;99423.94;1707925;82;21148;-43
2021/07/12 03:39:09;;;;;;;12.70;10.35;;;;;;;24.03;60.52;99423.20;1752834;79;21128;-43
2021/07/12 03:41:38;;;;;;;16.90;10.45;;;;;;;24.08;60.54;99428.16;1740383;81;21532;-42
2021/07/12 03:44:06;;;;;;;11.10;9.18;;;;;;;24.12;60.70;99432.97;1754786;80;21013;-43
2021/07/12 03:46:34;;;;;;;13.28;10.10;;;;;;;24.19;60.83;99425.83;1739277;81;20960;-43
2021/07/12 03:49:11;;;;;;;13.50;10.48;;;;;;;24.27;60.34;99429.11;1756546;80;21547;-43
2021/07/12 03:51:40;;;;;;;14.75;11.83;;;;;;;24.28;59.97;99426.50;1758116;80;21181;-43
2021/07/12 03:54:08;;;;;;;14.80;11.25;;;;;;;24.23;59.88;99418.16;1769438;80;21354;-43
2021/07/12 03:56:34;;;;;;;12.58;10.70;;;;;;;24.23;60.15;99421.70;1754881;80;21479;-43
2021/07/12 03:59:01;;;;;;;11.85;10.65;;;;;;;24.04;60.23;99387.36;1759730;80;20983;-43
2021/07/12 04:01:30;;;;;;;16.48;11.78;;;;;;;24.26;60.51;99426.95;1737940;80;21015;-43
2021/07/12 04:03:57;;;;;;;14.58;11.38;;;;;;;24.28;60.58;99430.05;1747697;80;21790;-43
2021/07/12 04:06:24;;;;;;;15.13;11.73;;;;;;;24.30;60.61;99419.30;1742710;81;21503;-43
2021/07/12 04:08:51;;;;;;;15.68;12.05;;;;;;;24.32;60.38;99421.61;1767317;80;20984;-43
2021/07/12 04:11:17;;;;;;;15.83;11.22;;;;;;;24.33;60.42;99418.39;1751953;79;21076;-43
2021/07/12 04:13:47;;;;;;;15.48;12.23;;;;;;;24.37;60.33;99415.48;1760259;80;21045;-43
2021/07/12 04:16:15;;;;;;;13.20;11.70;;;;;;;24.38;60.11;99413.66;1765589;80;20945;-43
2021/07/12 04:18:43;;;;;;;13.70;11.48;;;;;;;24.41;60.10;99415.52;1758416;80;21037;-43
2021/07/12 04:21:10;;;;;;;14.03;11.45;;;;;;;24.43;60.04;99413.08;1778990;80;20940;-43
2021/07/12 04:23:37;;;;;;;17.62;12.25;;;;;;;24.40;59.63;99411.19;1715268;80;20993;-43
2021/07/12 04:26:03;;;;;;;15.85;11.90;;;;;;;24.39;59.91;99409.67;1755222;80;21032;-43
2021/07/12 04:28:30;;;;;;;12.37;11.08;;;;;;;24.38;60.22;99415.05;1753770;80;21186;-43
2021/07/12 04:30:57;;;;;;;13.85;11.20;;;;;;;24.40;60.65;99420.14;1730041;80;21016;-43
2021/07/12 04:33:25;;;;;;;14.33;11.28;;;;;;;24.43;60.37;99422.00;1732661;81;20964;-43
2021/07/12 04:35:52;;;;;;;12.82;11.12;;;;;;;24.45;60.32;99423.08;1733612;81;21040;-43
2021/07/12 04:38:19;;;;;;;13.90;10.85;;;;;;;24.48;60.70;99417.27;1754726;80;21068;-43
2021/07/12 04:40:46;;;;;;;13.45;11.08;;;;;;;24.53;60.66;99413.30;1757577;80;21131;-43
2021/07/12 04:43:13;;;;;;;15.18;11.45;;;;;;;24.60;60.75;99412.24;1752905;80;20994;-43
2021/07/12 04:45:42;;;;;;;12.20;10.50;;;;;;;24.65;60.97;99404.73;1772607;80;21444;-43
2021/07/12 04:48:09;;;;;;;14.00;11.22;;;;;;;24.71;61.02;99409.08;1751290;80;21614;-43
2021/07/12 04:50:36;;;;;;;12.37;11.12;;;;;;;24.74;61.25;99411.70;1745262;80;21017;-43
2021/07/12 04:53:03;;;;;;;13.15;11.65;;;;;;;24.81;61.10;99400.97;1724765;80;21107;-43
2021/07/12 04:55:30;;;;;;;15.43;12.60;;;;;;;24.89;61.21;99407.20;1750461;80;21037;-44
2021/07/12 04:57:56;;;;;;;14.87;12.33;;;;;;;24.96;61.04;99404.77;1733043;80;20956;-43
2021/07/12 05:00:23;;;;;;;17.52;13.03;;;;;;;25.03;60.88;99410.02;1763705;80;21087;-43
2021/07/12 05:02:50;;;;;;;18.15;12.30;;;;;;;25.08;61.14;99408.04;1783108;80;20893;-43
2021/07/12 05:05:16;;;;;;;16.23;12.70;;;;;;;25.15;61.26;99416.09;1783309;80;21541;-43
2021/07/12 05:07:44;;;;;;;13.83;12.03;;;;;;;25.21;61.01;99415.66;1779967;80;21014;-43
2021/07/12 05:10:13;;;;;;;16.07;12.80;;;;;;;25.29;61.03;99411.98;1768361;80;20946;-43
2021/07/12 05:12:39;;;;;;;18.80;12.82;;;;;;;25.32;60.79;99420.16;1785420;80;21083;-43
2021/07/12 05:15:07;;;;;;;15.08;12.10;;;;;;;25.35;60.61;99415.70;1759526;80;21025;-43
2021/07/12 05:17:37;;;;;;;15.75;11.75;;;;;;;25.40;60.67;99425.59;1738253;80;21001;-42
2021/07/12 05:20:07;;;;;;;13.90;11.93;;;;;;;25.46;60.59;99426.52;1750909;82;20938;-43
2021/07/12 05:22:35;;;;;;;17.42;11.57;;;;;;;25.55;60.54;99420.88;1750411;82;21045;-43
2021/07/12 05:25:03;;;;;;;14.68;11.35;;;;;;;25.63;60.88;99421.50;1743979;80;21033;-43
2021/07/12 05:27:30;;;;;;;12.47;10.40;;;;;;;25.71;61.07;99426.12;1726517;80;21005;-43
2021/07/12 05:29:57;;;;;;;11.08;9.93;;;;;;;25.77;60.82;99417.36;1727789;82;21169;-43
2021/07/12 05:32:23;;;;;;;10.63;9.38;;;;;;;25.84;59.82;99417.06;1742331;80;21052;-43
2021/07/12 05:34:51;;;;;;;14.13;9.40;;;;;;;25.91;59.43;99420.91;1750856;82;21304;-43
2021/07/12 05:37:17;;;;;;;10.88;9.53;;;;;;;26.01;59.19;99424.47;1706856;83;21104;-43
2021/07/12 05:39:44;;;;;;;12.63;9.83;;;;;;;26.08;58.95;99424.95;1727256;81;21032;-43
2021/07/12 05:42:11;;;;;;;11.03;9.58;;;;;;;26.16;58.49;99430.34;1726184;82;21331;-43
2021/07/12 05:44:37;;;;;;;12.73;9.35;;;;;;;26.22;58.57;99429.92;1726251;83;21009;-43
2021/07/12 05:47:07;;;;;;;10.28;9.18;;;;;;;26.29;58.47;99434.38;1738385;81;21487;-43
2021/07/12 05:49:33;;;;;;;10.05;9.05;;;;;;;26.36;57.61;99439.02;1755647;81;21075;-43
2021/07/12 05:52:00;;;;;;;10.25;9.20;;;;;;;26.42;57.85;99432.84;1741086;80;21030;-43
2021/07/12 05:54:26;;;;;;;11.18;8.95;;;;;;;26.47;57.21;99441.94;1735185;80;21161;-43
2021/07/12 05:56:53;;;;;;;10.53;9.35;;;;;;;26.55;56.70;99441.77;1729474;81;21510;-43
2021/07/12 05:59:20;;;;;;;10.10;8.40;;;;;;;26.61;56.75;99441.30;1729320;81;21008;-43
2021/07/12 06:01:47;;;;;;;10.32;8.95;;;;;;;26.68;56.83;99436.79;1745446;81;21012;-43
2021/07/12 06:04:14;;;;;;;9.68;8.78;;;;;;;26.73;56.79;99439.72;1740457;80;21510;-43
2021/07/12 06:06:41;;;;;;;11.10;8.93;;;;;;;26.80;56.20;99442.80;1730408;81;21097;-43
2021/07/12 06:09:07;;;;;;;10.23;9.23;;;;;;;26.88;56.05;99447.44;1739485;80;21015;-43
2021/07/12 06:11:34;;;;;;;11.48;8.63;;;;;;;26.94;56.37;99448.35;1733738;81;21115;-43
2021/07/12 06:14:01;;;;;;;9.65;8.68;;;;;;;27.01;56.25;99444.64;1738960;81;21518;-43
2021/07/12 06:16:29;;;;;;;9.85;8.85;;;;;;;27.09;56.33;99447.22;1745741;81;20904;-43
2021/07/12 06:18:56;;;;;;;11.12;9.08;;;;;;;27.17;56.41;99443.47;1732339;81;21132;-43
2021/07/12 06:21:22;;;;;;;10.63;9.50;;;;;;;27.24;56.35;99438.35;1743625;81;21549;-43
2021/07/12 06:23:49;;;;;;;10.50;9.15;;;;;;;27.31;56.70;99451.14;1726109;81;21554;-41
2021/07/12 06:26:16;;;;;;;11.12;9.08;;;;;;;27.35;56.29;99442.64;1749150;81;21044;-42
2021/07/12 06:28:43;;;;;;;9.93;8.93;;;;;;;27.41;56.26;99451.25;1738072;81;21020;-42
2021/07/12 06:31:09;;;;;;;10.30;9.33;;;;;;;27.45;56.39;99455.27;1726060;83;21136;-42
2021/07/12 06:33:36;;;;;;;10.90;9.55;;;;;;;27.50;56.42;99457.41;1741714;81;20974;-42
2021/07/12 06:36:05;;;;;;;10.80;9.70;;;;;;;27.53;56.09;99463.45;1720204;83;20956;-42
2021/07/12 06:38:33;;;;;;;12.07;10.85;;;;;;;27.54;56.01;99462.99;1689975;84;21037;-42
2021/07/12 06:40:59;;;;;;;11.22;10.03;;;;;;;27.55;56.19;99463.73;1707603;84;21009;-42
2021/07/12 06:43:27;;;;;;;11.63;10.13;;;;;;;27.56;56.10;99448.57;1682734;84;21871;-42
2021/07/12 06:45:55;;;;;;;14.35;9.78;;;;;;;27.62;56.45;99455.82;1667162;85;20938;-42
2021/07/12 06:48:22;;;;;;;14.87;10.82;;;;;;;27.73;56.56;99468.45;1666898;85;21476;-42
2021/07/12 06:50:50;;;;;;;14.70;10.98;;;;;;;27.82;56.94;99462.20;1666797;86;21073;-42
2021/07/12 06:53:17;;;;;;;15.15;10.85;;;;;;;27.92;56.59;99458.73;1721609;82;21550;-42
2021/07/12 06:55:43;;;;;;;12.50;9.93;;;;;;;27.80;56.75;99421.48;1670654;85;21113;-42
2021/07/12 06:58:12;;;;;;;11.97;10.50;;;;;;;28.15;56.45;99450.22;1713287;82;21042;-42
2021/07/12 07:00:40;;;;;;;12.47;10.75;;;;;;;28.28;55.77;99446.54;1731903;82;20958;-42
2021/07/12 07:03:08;;;;;;;15.83;10.78;;;;;;;28.39;55.54;99441.18;1722505;82;22197;-42
2021/07/12 07:05:36;;;;;;;12.28;10.08;;;;;;;28.44;55.64;99434.94;1707555;84;21056;-42
2021/07/12 07:08:06;;;;;;;10.80;9.80;;;;;;;28.44;55.43;99435.71;1708508;82;21150;-42
2021/07/12 07:10:34;;;;;;;10.60;9.08;;;;;;;28.48;55.55;99442.48;1711070;83;21503;-42
2021/07/12 07:13:01;;;;;;;10.03;8.88;;;;;;;28.51;55.78;99443.69;1715801;80;20966;-42
2021/07/12 07:15:28;;;;;;;11.08;8.85;;;;;;;28.55;55.47;99446.30;1725948;83;21046;-42
2021/07/12 07:17:55;;;;;;;9.33;8.40;;;;;;;28.62;54.95;99445.14;1725615;83;21587;-43
2021/07/12 07:20:22;;;;;;;11.73;9.00;;;;;;;28.66;54.85;99452.06;1725859;83;21121;-42
2021/07/12 07:22:48;;;;;;;13.72;9.30;;;;;;;28.67;54.77;99461.98;1726635;82;20983;-42
2021/07/12 07:25:15;;;;;;;14.15;9.30;;;;;;;28.66;54.76;99463.88;1723213;82;21082;-42
2021/07/12 07:27:44;;;;;;;14.28;10.85;;;;;;;28.62;54.92;99465.44;1742836;82;21499;-42
2021/07/12 07:30:12;;;;;;;12.35;10.10;;;;;;;28.58;55.39;99464.86;1743121;82;21025;-42
2021/07/12 07:32:40;;;;;;;17.02;10.80;;;;;;;28.52;55.83;99470.95;1739289;82;21161;-42
2021/07/12 07:35:08;;;;;;;12.55;10.45;;;;;;;28.44;56.99;99473.98;1730707;82;21550;-42
2021/07/12 07:37:36;;;;;;;14.50;10.40;;;;;;;28.39;57.07;99471.23;1743067;82;21049;-42
2021/07/12 07:40:05;;;;;;;11.50;10.05;;;;;;;28.38;57.71;99473.87;1747493;81;21506;-42
2021/07/12 07:42:32;;;;;;;12.07;10.38;;;;;;;28.42;57.79;99475.07;1748920;82;21010;-42
2021/07/12 07:45:01;;;;;;;12.20;9.95;;;;;;;28.49;57.97;99472.70;1748519;82;21171;-42
2021/07/12 07:47:27;;;;;;;13.38;10.25;;;;;;;28.58;58.06;99470.44;1748909;82;20972;-42
2021/07/12 07:49:54;;;;;;;15.00;11.10;;;;;;;28.71;58.42;99470.95;1736163;82;21044;-42
2021/07/12 07:52:20;;;;;;;14.18;10.08;;;;;;;28.85;57.84;99469.44;1719152;82;21044;-42
2021/07/12 07:54:46;;;;;;;12.10;10.75;;;;;;;28.99;56.77;99464.48;1719182;83;21037;-42
2021/07/12 07:57:13;;;;;;;10.93;9.83;;;;;;;29.09;56.54;99456.14;1719205;82;21189;-42
2021/07/12 07:59:39;;;;;;;14.33;10.13;;;;;;;29.23;55.30;99454.58;1719129;82;21010;-42
2021/07/12 08:02:06;;;;;;;12.25;9.20;;;;;;;29.33;53.45;99454.63;1719105;83;21005;-42
2021/07/12 08:04:33;;;;;;;10.40;9.20;;;;;;;29.43;52.60;99456.06;1745126;82;21033;-42
2021/07/12 08:06:59;;;;;;;15.72;9.30;;;;;;;29.52;51.78;99461.52;1748674;82;21005;-42
2021/07/12 08:09:26;;;;;;;14.25;9.63;;;;;;;29.56;50.98;99466.89;1749052;82;22143;-42
2021/07/12 08:11:53;;;;;;;11.57;9.03;;;;;;;29.55;50.50;99473.11;1748778;82;21012;-42
2021/07/12 08:14:19;;;;;;;24.02;10.05;;;;;;;29.55;50.42;99470.31;1739695;82;20988;-42
2021/07/12 08:16:49;;;;;;;16.40;9.53;;;;;;;29.57;50.28;99469.21;1719054;83;21484;-42
2021/07/12 08:19:16;;;;;;;21.05;9.25;;;;;;;29.56;49.62;99470.45;1719265;82;21023;-42
2021/07/12 08:21:44;;;;;;;23.35;10.93;;;;;;;29.54;49.93;99463.80;1719135;83;21108;-42
2021/07/12 08:24:11;;;;;;;24.63;10.25;;;;;;;29.52;50.76;99455.93;1718779;83;21022;-42
2021/07/12 08:26:37;;;;;;;13.35;9.40;;;;;;;29.50;50.43;99454.23;1718827;82;20941;-42
2021/07/12 08:29:05;;;;;;;18.80;9.65;;;;;;;29.50;49.68;99461.22;1719401;82;21001;-42
2021/07/12 08:31:32;;;;;;;19.67;9.15;;;;;;;29.52;49.78;99457.95;1746555;82;21041;-42
2021/07/12 08:33:58;;;;;;;22.77;10.00;;;;;;;29.56;49.79;99455.09;1748481;82;21082;-42
2021/07/12 08:36:25;;;;;;;15.48;9.38;;;;;;;29.65;49.81;99457.76;1730919;82;20941;-42
2021/07/12 08:38:52;;;;;;;27.90;9.95;;;;;;;29.76;50.04;99452.33;1714530;82;21637;-42
2021/07/12 08:41:21;;;;;;;28.92;10.10;;;;;;;29.88;49.79;99451.05;1690405;84;21336;-42
2021/07/12 08:43:48;;;;;;;18.57;9.40;;;;;;;29.99;49.20;99451.23;1726020;82;21017;-42
2021/07/12 08:46:15;;;;;;;16.05;9.48;;;;;;;30.06;49.05;99452.22;1705431;84;21544;-42
2021/07/12 08:48:42;;;;;;;11.93;9.45;;;;;;;30.12;49.33;99458.63;1705709;84;21034;-42
2021/07/12 08:51:08;;;;;;;11.45;9.28;;;;;;;30.17;49.40;99453.10;1705190;84;21065;-42
2021/07/12 08:53:37;;;;;;;11.25;8.88;;;;;;;30.19;49.34;99451.99;1713368;81;21041;-42
2021/07/12 08:56:04;;;;;;;12.40;8.60;;;;;;;30.19;49.54;99459.61;1719825;83;21095;-42
2021/07/12 08:58:34;;;;;;;12.43;9.68;;;;;;;30.19;49.46;99464.58;1722281;82;20926;-43
2021/07/12 09:01:04;;;;;;;12.65;9.53;;;;;;;30.18;48.83;99460.86;1734259;82;21555;-42
2021/07/12 09:03:40;;;;;;;10.60;9.55;;;;;;;30.10;49.14;99467.52;1736383;81;21079;-42
2021/07/12 09:06:11;;;;;;;12.50;9.38;;;;;;;30.06;49.59;99467.59;1740194;82;21514;-42
2021/07/12 09:08:53;;;;;;;10.58;9.38;;;;;;;30.03;49.72;99466.53;1735579;82;21499;-42
2021/07/12 09:11:38;;;;;;;11.70;9.45;;;;;;;30.05;49.52;99463.26;1726267;82;21120;-42
2021/07/12 09:14:10;;;;;;;11.85;9.40;;;;;;;30.07;49.29;99460.09;1732749;82;21005;-42
2021/07/12 09:16:55;;;;;;;20.32;9.20;;;;;;;30.12;48.99;99462.19;1677482;84;20984;-42
2021/07/12 09:19:29;;;;;;;12.75;9.73;;;;;;;30.27;48.86;99457.91;1705853;82;21026;-42
2021/07/12 09:22:09;;;;;;;10.45;9.30;;;;;;;30.45;48.46;99457.59;1705427;82;20942;-42
2021/07/12 09:24:49;;;;;;;11.30;9.40;;;;;;;30.63;47.88;99455.92;1709423;82;21121;-42
2021/07/12 09:27:18;;;;;;;12.60;9.83;;;;;;;30.80;47.19;99454.66;1720097;82;20893;-42
2021/07/12 09:29:48;;;;;;;12.00;9.03;;;;;;;30.94;47.01;99459.99;1721504;82;21018;-42
2021/07/12 09:32:17;;;;;;;13.25;9.30;;;;;;;31.09;46.91;99456.45;1730907;82;21030;-42
2021/07/12 09:34:46;;;;;;;11.10;9.33;;;;;;;31.15;46.36;99459.30;1706901;82;21069;-42
2021/07/12 09:37:15;;;;;;;;;;;;;;;31.22;46.68;99456.83;1735611;82;21117;-42
2021/07/12 09:39:47;;;;;;;12.70;10.18;;;;;;;31.31;46.64;99465.05;1711338;82;20479;-43
2021/07/12 09:42:31;;;;;;;10.88;9.78;;;;;;;31.29;46.08;99468.96;1726251;82;20977;-42
2021/07/12 09:45:05;;;;;;;11.78;10.08;;;;;;;31.38;46.35;99472.97;1748680;82;21057;-43
2021/07/12 09:47:37;;;;;;;11.57;10.15;;;;;;;31.47;46.78;99480.41;1747900;82;21076;-43
2021/07/12 09:50:16;;;;;;;11.20;10.03;;;;;;;31.55;46.59;99479.33;1748546;82;21160;-43
2021/07/12 09:52:56;;;;;;;12.03;8.95;;;;;;;31.62;45.50;99481.67;1738048;82;21267;-43
2021/07/12 09:55:30;;;;;;;12.85;9.18;;;;;;;31.75;45.45;99479.23;1718511;82;21013;-43
2021/07/12 09:58:16;;;;;;;10.18;9.18;;;;;;;31.85;44.92;99479.16;1719034;82;21108;-43
2021/07/12 10:00:51;;;;;;;146.18;18.48;;;;;;;31.90;45.25;99477.75;1719083;82;21096;-43
2021/07/12 10:03:22;;;;;;;15.05;9.58;;;;;;;31.95;44.91;99475.50;1716301;80;21154;-43
2021/07/12 10:05:49;;;;;;;11.65;9.33;;;;;;;32.03;44.82;99477.95;1710534;83;20969;-43
2021/07/12 10:08:16;;;;;;;11.35;9.03;;;;;;;32.07;45.00;99470.06;1716949;82;20980;-43
2021/07/12 10:10:44;;;;;;;11.20;9.33;;;;;;;32.11;44.67;99474.81;1734121;82;21016;-43
2021/07/12 10:13:12;;;;;;;12.15;9.73;;;;;;;32.13;44.76;99470.25;1748722;82;21005;-43
2021/07/12 10:15:39;;;;;;;10.50;9.15;;;;;;;32.15;45.47;99464.89;1748780;82;21131;-43
2021/07/12 10:18:06;;;;;;;11.40;8.88;;;;;;;32.16;44.75;99465.02;1739701;82;20940;-44
2021/07/12 10:20:34;;;;;;;10.85;9.55;;;;;;;32.19;44.71;99465.44;1719097;83;21043;-43
2021/07/12 10:23:02;;;;;;;11.78;9.18;;;;;;;32.16;45.01;99466.42;1719216;83;21081;-43
2021/07/12 10:25:30;;;;;;;11.70;9.10;;;;;;;32.09;45.10;99465.50;1734861;82;21047;-43
2021/07/12 10:28:06;;;;;;;12.03;9.28;;;;;;;32.05;45.82;99467.75;1730669;82;21105;-43
2021/07/12 10:30:43;;;;;;;11.55;9.23;;;;;;;32.04;44.80;99467.64;1718987;83;21009;-43
2021/07/12 10:33:09;;;;;;;10.10;9.10;;;;;;;32.00;44.70;99460.08;1717554;82;21000;-43
2021/07/12 10:35:55;;;;;;;10.25;9.25;;;;;;;32.01;46.03;99459.45;1713297;82;20977;-43
2021/07/12 10:38:42;;;;;;;12.70;8.20;;;;;;;32.06;45.75;99456.67;1719212;82;21058;-43
2021/07/12 10:41:22;;;;;;;9.90;9.10;;;;;;;32.09;45.73;99454.27;1694773;83;21113;-43
2021/07/12 10:43:52;;;;;;;11.12;8.48;;;;;;;32.14;45.43;99454.96;1690754;84;21084;-43
2021/07/12 10:46:31;;;;;;;12.35;9.30;;;;;;;32.17;44.98;99457.38;1716391;82;20973;-43
2021/07/12 10:49:26;;;;;;;12.10;9.48;;;;;;;32.17;44.54;99449.73;1734652;82;20970;-43
2021/07/12 10:51:52;;;;;;;12.10;8.80;;;;;;;32.20;44.11;99448.71;1727959;82;21066;-43
2021/07/12 10:54:20;;;;;;;10.68;9.58;;;;;;;32.23;43.95;99442.74;1734480;82;21143;-43
2021/07/12 10:56:57;;;;;;;11.22;9.25;;;;;;;32.29;43.68;99440.06;1732275;82;21010;-43
2021/07/12 10:59:37;;;;;;;11.20;9.20;;;;;;;32.38;43.86;99433.47;1705643;84;20990;-43
2021/07/12 11:02:19;;;;;;;11.57;9.60;;;;;;;32.43;43.45;99425.70;1705337;83;21017;-43
2021/07/12 11:04:52;;;;;;;10.82;9.50;;;;;;;32.41;43.74;99412.80;1704733;82;21061;-43
2021/07/12 11:07:16;;;;;;;10.32;9.30;;;;;;;32.45;43.47;99411.14;1712115;82;21778;-43
2021/07/12 11:09:55;;;;;;;10.35;9.35;;;;;;;32.48;43.53;99398.92;1708147;82;21009;-43
2021/07/12 11:12:40;;;;;;;13.98;9.58;;;;;;;32.49;44.31;99396.22;1709801;82;20950;-43
2021/07/12 11:15:18;;;;;;;10.03;9.03;;;;;;;32.45;44.23;99387.28;1722663;82;21018;-43
2021/07/12 11:17:55;;;;;;;9.70;8.75;;;;;;;32.42;43.75;99383.47;1733973;82;21253;-43
2021/07/12 11:20:46;;;;;;;10.32;9.30;;;;;;;32.44;44.09;99380.14;1706249;82;21096;-43
2021/07/12 11:23:47;;;;;;;11.30;9.55;;;;;;;32.48;43.19;99373.66;1716223;82;21440;-43
2021/07/12 11:26:30;;;;;;;14.63;9.90;;;;;;;32.53;43.78;99369.45;1712057;82;21555;-43
2021/07/12 11:28:59;;;;;;;10.48;9.30;;;;;;;32.55;43.96;99364.72;1705582;82;21535;-43
2021/07/12 11:31:51;;;;;;;11.75;9.88;;;;;;;32.60;43.68;99356.94;1705721;84;21010;-43
2021/07/12 11:34:32;;;;;;;11.43;9.30;;;;;;;32.70;43.46;99340.77;1705463;84;21140;-43
2021/07/12 11:37:06;;;;;;;11.95;9.95;;;;;;;32.83;43.80;99340.86;1705534;84;21547;-43
2021/07/12 11:39:36;;;;;;;15.23;10.70;;;;;;;33.02;42.85;99346.06;1705419;82;20973;-43
2021/07/12 11:42:18;;;;;;;12.78;9.55;;;;;;;33.16;42.71;99340.86;1702744;82;21453;-43